Time;durP1;ratioP1;P1;durP2;ratioP2;P2;SDS_P1;SDS_P2;PMS_P1;PMS_P2;Temp;Humidity;BMP_temperature;BMP_pressure;BME280_temperature;BME280_humidity;BME280_pressure;Samples;Min_cycle;Max_cycle;Signal;HPM_P1;HPM_P2
2022/09/08 00:00:09;;;;;;;32.67;25.58;;;16.10;99.90;;;;;;4966218;28;20057;-65
2022/09/08 00:02:36;;;;;;;34.30;24.50;;;16.10;99.90;;;;;;4949698;28;20054;-65
2022/09/08 00:05:03;;;;;;;26.65;23.88;;;16.10;99.90;;;;;;4948964;28;20182;-65
2022/09/08 00:07:30;;;;;;;28.07;25.07;;;16.10;99.90;;;;;;4965045;28;20046;-65
2022/09/08 00:09:56;;;;;;;27.30;24.50;;;16.10;99.90;;;;;;4968323;28;20308;-65
2022/09/08 00:12:24;;;;;;;31.98;25.25;;;16.10;99.90;;;;;;4969143;28;20508;-65
2022/09/08 00:14:50;;;;;;;;;;;16.10;99.90;;;;;;4968572;28;20047;-65
2022/09/08 00:17:16;;;;;;;32.63;29.15;;;16.10;99.90;;;;;;4969000;28;19925;-65
2022/09/08 00:19:41;;;;;;;31.55;27.95;;;16.00;99.90;;;;;;4968420;28;20058;-65
2022/09/08 00:22:07;;;;;;;35.42;30.55;;;16.10;99.90;;;;;;4964212;28;20162;-65
2022/09/08 00:24:33;;;;;;;34.47;30.73;;;16.10;99.90;;;;;;4967746;28;20062;-65
2022/09/08 00:26:58;;;;;;;35.90;32.05;;;16.00;99.90;;;;;;4968264;28;20058;-65
2022/09/08 00:29:24;;;;;;;39.15;32.55;;;16.00;99.90;;;;;;4968147;28;20043;-65
2022/09/08 00:31:50;;;;;;;39.97;32.90;;;16.00;99.90;;;;;;4968682;28;20034;-65
2022/09/08 00:34:15;;;;;;;36.17;32.30;;;16.00;99.90;;;;;;4968230;28;20047;-65
2022/09/08 00:36:41;;;;;;;36.13;30.35;;;15.90;99.90;;;;;;4968398;28;20050;-65
2022/09/08 00:39:06;;;;;;;36.05;32.15;;;15.90;99.90;;;;;;4964619;28;20039;-65
2022/09/08 00:41:33;;;;;;;35.05;31.35;;;15.90;99.90;;;;;;4966184;28;20105;-65
2022/09/08 00:43:59;;;;;;;32.47;29.25;;;15.90;99.90;;;;;;4959368;28;20058;-65
2022/09/08 00:46:28;;;;;;;33.42;29.98;;;15.90;99.90;;;;;;4951062;28;20118;-65
2022/09/08 00:49:10;;;;;;;35.67;30.83;;;15.90;99.90;;;;;;4961342;28;20046;-65
2022/09/08 00:51:39;;;;;;;38.53;34.70;;;15.90;99.90;;;;;;4967745;28;20530;-65
2022/09/08 00:54:05;;;;;;;62.33;47.80;;;15.80;99.90;;;;;;4967983;28;20128;-65
2022/09/08 00:56:31;;;;;;;44.60;38.47;;;15.80;99.90;;;;;;4964080;28;20039;-65
2022/09/08 00:59:00;;;;;;;44.53;36.95;;;15.70;99.90;;;;;;4968002;28;20050;-65
2022/09/08 01:01:25;;;;;;;;;;;15.70;99.90;;;;;;4955419;28;20047;-65
2022/09/08 01:03:51;;;;;;;49.33;42.53;;;15.70;99.90;;;;;;4959621;28;19945;-65
2022/09/08 01:12:45;;;;;;;49.83;43.80;;;15.60;99.90;;;;;;4953929;28;20054;-65
2022/09/08 01:15:16;;;;;;;60.25;50.75;;;15.70;99.90;;;;;;4968091;28;20051;-65
2022/09/08 01:17:42;;;;;;;66.38;53.92;;;15.70;99.90;;;;;;4968372;28;20639;-65
2022/09/08 01:20:09;;;;;;;67.82;51.53;;;15.70;99.90;;;;;;4968569;28;20059;-65
2022/09/08 01:23:00;;;;;;;54.60;47.00;;;15.60;99.90;;;;;;4971104;28;20066;-65
2022/09/08 01:25:56;;;;;;;43.65;38.95;;;15.60;99.90;;;;;;4970433;28;20069;-65
2022/09/08 01:28:28;;;;;;;32.47;29.05;;;15.60;99.90;;;;;;4971857;28;20133;-65
2022/09/08 01:30:54;;;;;;;37.55;26.88;;;15.60;99.90;;;;;;4969708;28;20640;-65
2022/09/08 01:33:21;;;;;;;28.75;25.85;;;15.50;99.90;;;;;;4971440;28;20050;-65
2022/09/08 01:35:47;;;;;;;39.58;35.20;;;15.40;99.90;;;;;;4971764;28;20047;-65
2022/09/08 01:38:13;;;;;;;66.72;51.47;;;15.40;99.90;;;;;;4970704;28;20127;-65
2022/09/08 01:40:39;;;;;;;71.35;53.58;;;15.50;99.90;;;;;;4971973;28;20041;-65
2022/09/08 01:43:08;;;;;;;60.10;48.58;;;15.50;99.90;;;;;;4970849;28;20113;-65
2022/09/08 01:45:34;;;;;;;57.97;46.92;;;15.50;99.90;;;;;;4971269;28;20054;-65
2022/09/08 01:48:00;;;;;;;70.43;53.90;;;15.50;99.90;;;;;;4962704;28;20499;-65
2022/09/08 01:50:26;;;;;;;59.22;51.38;;;15.50;99.90;;;;;;4970727;28;20047;-65
2022/09/08 01:52:52;;;;;;;67.25;55.88;;;15.50;99.90;;;;;;4971343;28;20125;-66
2022/09/08 01:55:17;;;;;;;76.13;56.33;;;15.50;99.90;;;;;;4971624;28;20046;-65
2022/09/08 01:57:43;;;;;;;73.30;58.63;;;15.50;99.90;;;;;;4971114;28;20046;-65
2022/09/08 02:00:09;;;;;;;69.68;57.63;;;15.60;99.90;;;;;;4970610;28;20035;-65
2022/09/08 02:02:36;;;;;;;84.80;65.97;;;15.60;99.90;;;;;;4970227;28;20042;-65
2022/09/08 02:05:02;;;;;;;91.53;71.75;;;15.70;99.90;;;;;;4963579;28;20051;-65
2022/09/08 02:07:27;;;;;;;84.97;68.55;;;15.70;99.90;;;;;;4970796;28;20460;-65
2022/09/08 02:09:53;;;;;;;74.43;60.30;;;15.70;99.90;;;;;;4971204;28;20082;-65
2022/09/08 02:12:19;;;;;;;79.18;57.63;;;15.80;99.90;;;;;;4969067;28;20046;-65
2022/09/08 02:14:45;;;;;;;79.22;60.33;;;15.80;99.90;;;;;;4970235;28;20047;-65
2022/09/08 02:17:11;;;;;;;69.20;58.03;;;15.80;99.90;;;;;;4969959;28;20051;-65
2022/09/08 02:19:37;;;;;;;68.40;55.30;;;15.80;99.90;;;;;;4967517;28;20089;-65
2022/09/08 02:22:02;;;;;;;68.40;56.47;;;15.80;99.90;;;;;;4956892;28;20050;-65
2022/09/08 02:24:28;;;;;;;66.47;55.58;;;15.90;99.90;;;;;;4970301;28;20053;-65
2022/09/08 02:26:54;;;;;;;76.82;58.03;;;15.90;99.90;;;;;;4970314;28;20051;-65
2022/09/08 02:29:20;;;;;;;72.35;58.70;;;15.80;99.90;;;;;;4970346;28;20047;-65
2022/09/08 02:31:46;;;;;;;76.13;61.60;;;15.90;99.90;;;;;;4958726;28;20030;-65
2022/09/08 02:34:11;;;;;;;67.30;55.95;;;15.80;99.90;;;;;;4970376;28;20533;-65
2022/09/08 02:36:38;;;;;;;71.13;58.40;;;15.80;99.90;;;;;;4968490;28;20046;-65
2022/09/08 02:39:04;;;;;;;73.10;54.97;;;15.80;99.90;;;;;;4967319;28;20520;-65
2022/09/08 02:41:29;;;;;;;72.07;56.38;;;15.90;99.90;;;;;;4970366;28;20461;-65
2022/09/08 02:43:56;;;;;;;74.47;58.50;;;15.80;99.90;;;;;;4970495;28;20138;-65
2022/09/08 02:46:22;;;;;;;69.40;58.90;;;15.90;99.90;;;;;;4963710;28;20399;-65
2022/09/08 02:48:48;;;;;;;73.30;58.22;;;15.90;99.90;;;;;;4967230;28;20054;-65
2022/09/08 02:51:17;;;;;;;72.15;56.15;;;16.00;99.90;;;;;;4950478;29;20514;-65
2022/09/08 02:53:43;;;;;;;71.28;58.33;;;15.90;99.90;;;;;;4957773;28;20351;-65
2022/09/08 02:56:09;;;;;;;75.15;53.45;;;16.00;99.90;;;;;;4966421;28;20679;-65
2022/09/08 02:58:36;;;;;;;86.47;64.95;;;16.00;99.90;;;;;;4970042;28;20042;-65
2022/09/08 03:01:02;;;;;;;74.95;61.72;;;16.00;99.90;;;;;;4968851;28;20046;-65
2022/09/08 03:03:27;;;;;;;76.53;61.45;;;16.00;99.90;;;;;;4970025;28;20134;-65
2022/09/08 03:05:53;;;;;;;74.65;57.95;;;16.00;99.90;;;;;;4968550;28;20523;-65
2022/09/08 03:08:23;;;;;;;75.00;59.55;;;15.90;99.90;;;;;;4970228;28;20039;-65
2022/09/08 03:10:49;;;;;;;75.95;58.17;;;15.90;99.90;;;;;;4969529;28;20041;-65
2022/09/08 03:13:15;;;;;;;75.68;55.47;;;16.00;99.90;;;;;;4960293;28;20066;-65
2022/09/08 03:15:43;;;;;;;79.75;62.28;;;16.00;99.90;;;;;;4973669;28;20046;-65
2022/09/08 03:18:09;;;;;;;65.30;55.00;;;16.00;99.90;;;;;;4987182;28;20054;-65
2022/09/08 03:20:36;;;;;;;68.82;56.90;;;16.00;99.90;;;;;;4987570;28;20411;-65
2022/09/08 03:23:03;;;;;;;76.22;58.85;;;16.00;99.90;;;;;;4989021;28;20038;-65
2022/09/08 03:25:29;;;;;;;82.05;61.30;;;16.10;99.90;;;;;;4985898;28;20050;-65
2022/09/08 03:27:54;;;;;;;70.65;55.85;;;16.00;99.90;;;;;;4968221;28;20054;-65
2022/09/08 03:30:20;;;;;;;70.57;55.47;;;16.00;99.90;;;;;;4966287;28;20039;-65
2022/09/08 03:32:47;;;;;;;77.82;59.45;;;15.90;99.90;;;;;;4966244;28;20042;-65
2022/09/08 03:35:15;;;;;;;89.78;66.25;;;15.90;99.90;;;;;;4953080;28;20047;-65
2022/09/08 03:37:41;;;;;;;;;;;15.90;99.90;;;;;;4950104;29;20504;-65
2022/09/08 03:40:10;;;;;;;87.30;66.15;;;15.90;99.90;;;;;;4949935;28;20062;-65
2022/09/08 03:42:38;;;;;;;85.43;64.95;;;15.80;99.90;;;;;;4968441;28;20055;-65
2022/09/08 03:45:06;;;;;;;97.70;73.53;;;15.80;99.90;;;;;;4967845;28;20060;-65
2022/09/08 03:47:32;;;;;;;;;;;15.90;99.90;;;;;;4964608;28;20126;-65
2022/09/08 03:49:58;;;;;;;89.18;66.90;;;15.90;99.90;;;;;;4969493;28;20013;-65
2022/09/08 03:52:27;;;;;;;94.10;69.72;;;15.80;99.90;;;;;;4969137;28;20334;-65
2022/09/08 03:54:53;;;;;;;101.28;71.53;;;15.80;99.90;;;;;;4968807;28;20050;-67
2022/09/08 03:57:22;;;;;;;90.90;72.32;;;15.80;99.90;;;;;;4969143;28;20043;-65
2022/09/08 03:59:49;;;;;;;105.80;74.65;;;15.80;99.90;;;;;;4968757;28;20050;-65
2022/09/08 04:02:15;;;;;;;106.57;76.23;;;15.80;99.90;;;;;;4968656;28;20054;-65
2022/09/08 04:04:42;;;;;;;111.38;76.25;;;15.80;99.90;;;;;;4969197;28;20176;-65
2022/09/08 04:07:09;;;;;;;111.93;79.60;;;15.70;99.90;;;;;;4963734;28;20054;-65
2022/09/08 04:09:36;;;;;;;124.88;86.07;;;15.70;99.90;;;;;;4968959;28;20134;-65
2022/09/08 04:12:02;;;;;;;122.13;85.68;;;15.70;99.90;;;;;;4967853;28;20055;-65
2022/09/08 04:14:28;;;;;;;119.97;86.10;;;15.70;99.90;;;;;;4957815;28;20468;-65
2022/09/08 04:16:54;;;;;;;115.45;86.07;;;15.70;99.90;;;;;;4949158;29;20138;-65
2022/09/08 04:19:19;;;;;;;116.13;82.15;;;15.80;99.90;;;;;;4955974;28;20153;-65
2022/09/08 04:21:45;;;;;;;107.97;78.97;;;15.80;99.90;;;;;;4964737;28;20052;-65
2022/09/08 04:24:11;;;;;;;104.85;80.40;;;15.80;99.90;;;;;;4968118;28;20078;-65
2022/09/08 04:26:37;;;;;;;104.15;83.57;;;15.90;99.90;;;;;;4963226;28;20046;-65
2022/09/08 04:29:03;;;;;;;104.43;78.18;;;15.90;99.90;;;;;;4965143;28;20495;-65
2022/09/08 04:31:28;;;;;;;115.07;79.45;;;15.90;99.90;;;;;;4968493;28;20085;-67
2022/09/08 04:33:55;;;;;;;118.75;81.53;;;15.90;99.90;;;;;;4968428;28;20043;-67
2022/09/08 04:36:22;;;;;;;118.28;81.65;;;15.90;99.90;;;;;;4968263;28;20070;-66
2022/09/08 04:38:48;;;;;;;119.57;84.20;;;15.80;99.90;;;;;;4955846;28;20411;-66
2022/09/08 04:41:16;;;;;;;120.82;84.80;;;15.80;99.90;;;;;;4950948;28;20134;-67
2022/09/08 04:43:42;;;;;;;122.40;86.72;;;15.80;99.90;;;;;;4967538;28;20411;-67
2022/09/08 04:46:15;;;;;;;120.88;86.38;;;15.80;99.90;;;;;;4968378;28;20049;-67
2022/09/08 04:48:42;;;;;;;120.85;82.22;;;15.80;99.90;;;;;;4968605;28;20143;-66
2022/09/08 04:51:13;;;;;;;121.65;84.50;;;15.80;99.90;;;;;;4968705;28;20078;-67
2022/09/08 04:53:39;;;;;;;111.18;80.28;;;15.80;99.90;;;;;;4968696;28;20046;-66
2022/09/08 04:56:07;;;;;;;112.60;79.93;;;15.80;99.90;;;;;;4963619;28;20090;-66
2022/09/08 04:58:37;;;;;;;121.95;80.95;;;15.70;99.90;;;;;;4967598;28;20129;-66
2022/09/08 05:01:07;;;;;;;117.45;83.60;;;15.70;99.90;;;;;;4956486;28;20054;-67
2022/09/08 05:03:33;;;;;;;119.75;81.75;;;15.60;99.90;;;;;;4966511;28;20551;-67
2022/09/08 05:06:07;;;;;;;119.35;80.28;;;15.60;99.90;;;;;;4972051;28;20046;-66
2022/09/08 05:08:33;;;;;;;111.03;77.68;;;15.60;99.90;;;;;;4970939;28;20992;-66
2022/09/08 05:10:59;;;;;;;115.50;82.55;;;15.60;99.90;;;;;;4969068;28;20043;-66
2022/09/08 05:13:25;;;;;;;109.63;81.18;;;15.60;99.90;;;;;;4971887;28;20070;-66
2022/09/08 05:15:52;;;;;;;113.07;78.90;;;15.50;99.90;;;;;;4972096;28;20489;-65
2022/09/08 05:18:17;;;;;;;120.63;76.95;;;15.50;99.90;;;;;;4971988;28;20038;-65
2022/09/08 05:20:43;;;;;;;119.80;78.93;;;15.30;99.90;;;;;;4971471;28;20099;-65
2022/09/08 05:23:09;;;;;;;106.00;78.78;;;15.30;99.90;;;;;;4971839;28;20038;-65
2022/09/08 05:25:34;;;;;;;112.13;81.25;;;15.30;99.90;;;;;;4970526;28;20507;-65
2022/09/08 05:28:01;;;;;;;109.68;78.20;;;15.30;99.90;;;;;;4969130;28;20530;-65
2022/09/08 05:30:26;;;;;;;119.07;82.55;;;15.40;99.90;;;;;;4971190;28;20057;-64
2022/09/08 05:32:52;;;;;;;129.52;88.55;;;15.40;99.90;;;;;;4970964;28;20038;-65
2022/09/08 05:35:17;;;;;;;121.65;86.40;;;15.50;99.90;;;;;;4969256;28;20039;-65
2022/09/08 05:37:43;;;;;;;131.45;86.80;;;15.50;99.90;;;;;;4952562;29;20505;-65
2022/09/08 05:40:09;;;;;;;122.43;85.82;;;15.60;99.90;;;;;;4951889;29;20051;-65
2022/09/08 05:42:35;;;;;;;121.43;83.13;;;15.70;99.90;;;;;;4967700;28;20793;-65
2022/09/08 05:45:00;;;;;;;104.57;76.75;;;15.80;99.90;;;;;;4969412;28;20053;-65
2022/09/08 05:47:26;;;;;;;118.82;79.75;;;15.80;99.90;;;;;;4968471;28;20050;-67
2022/09/08 05:49:52;;;;;;;109.55;77.38;;;15.80;99.90;;;;;;4970877;28;20080;-67
2022/09/08 05:52:19;;;;;;;110.10;76.70;;;15.80;99.90;;;;;;4971547;28;20174;-67
2022/09/08 05:54:44;;;;;;;118.63;81.82;;;15.70;99.90;;;;;;4960436;28;20035;-67
2022/09/08 05:57:10;;;;;;;123.97;82.90;;;15.70;99.90;;;;;;4964175;28;20053;-67
2022/09/08 05:59:37;;;;;;;122.07;83.97;;;15.70;99.90;;;;;;4952733;28;20054;-66
2022/09/08 06:02:02;;;;;;;124.03;84.10;;;15.70;99.90;;;;;;4951843;28;20444;-67
2022/09/08 06:04:29;;;;;;;107.07;77.13;;;15.70;99.90;;;;;;4965886;28;20054;-67
2022/09/08 06:06:54;;;;;;;117.40;79.30;;;15.70;99.90;;;;;;4959972;28;20050;-67
2022/09/08 06:09:20;;;;;;;118.50;83.60;;;15.70;99.90;;;;;;4967805;28;20047;-68
2022/09/08 06:11:46;;;;;;;120.45;87.20;;;15.80;99.90;;;;;;4964303;28;20125;-67
2022/09/08 06:14:11;;;;;;;116.13;81.13;;;15.90;99.90;;;;;;4965683;28;20078;-67
2022/09/08 06:16:37;;;;;;;111.43;80.18;;;15.90;99.90;;;;;;4962972;28;20058;-66
2022/09/08 06:19:03;;;;;;;99.93;74.72;;;15.90;99.90;;;;;;4960031;28;20054;-65
2022/09/08 06:21:32;;;;;;;110.85;77.18;;;16.00;99.90;;;;;;4964582;28;20035;-66
2022/09/08 06:24:04;;;;;;;109.88;80.18;;;16.00;99.90;;;;;;4970016;28;20051;-66
2022/09/08 06:27:06;;;;;;;126.45;87.80;;;16.00;99.90;;;;;;4964555;28;20043;-66
2022/09/08 06:29:44;;;;;;;115.25;84.70;;;16.00;99.90;;;;;;4961890;28;20110;-66
2022/09/08 06:32:25;;;;;;;127.22;90.18;;;16.00;99.90;;;;;;4969473;28;20093;-65
2022/09/08 06:35:34;;;;;;;126.85;96.05;;;16.10;99.90;;;;;;4970589;28;20423;-65
2022/09/08 06:38:27;;;;;;;134.30;92.70;;;16.20;99.90;;;;;;4951153;28;20082;-65
2022/09/08 06:41:08;;;;;;;116.90;86.53;;;16.20;99.90;;;;;;4965913;28;20412;-66
2022/09/08 06:43:44;;;;;;;117.93;85.03;;;16.30;99.90;;;;;;4970252;28;20052;-65
2022/09/08 06:46:21;;;;;;;142.45;94.45;;;16.30;99.90;;;;;;4967431;28;20050;-65
2022/09/08 06:48:48;;;;;;;124.28;88.35;;;16.30;99.90;;;;;;4970743;28;20046;-65
2022/09/08 06:51:42;;;;;;;124.20;90.13;;;16.40;99.90;;;;;;4965898;28;20043;-65
2022/09/08 06:54:26;;;;;;;134.85;93.47;;;16.40;99.90;;;;;;4956121;28;20207;-65
2022/09/08 06:57:12;;;;;;;131.65;88.95;;;16.40;99.90;;;;;;4953787;28;20143;-65
2022/09/08 06:59:58;;;;;;;143.65;93.93;;;16.40;99.90;;;;;;4968240;28;20053;-65
2022/09/08 07:02:59;;;;;;;123.32;85.50;;;16.50;99.90;;;;;;4969806;28;20046;-65
2022/09/08 07:05:56;;;;;;;123.28;84.68;;;16.60;99.90;;;;;;4928943;29;20819;-65
2022/09/08 07:08:40;;;;;;;131.48;91.88;;;16.50;99.90;;;;;;4959086;28;20050;-65
2022/09/08 07:11:19;;;;;;;122.47;85.40;;;16.50;99.90;;;;;;4968871;28;20151;-64
2022/09/08 07:13:59;;;;;;;120.40;84.93;;;16.50;99.90;;;;;;4970076;28;20174;-65
2022/09/08 07:16:40;;;;;;;121.15;82.03;;;16.50;99.90;;;;;;4968489;28;20057;-64
2022/09/08 07:19:17;;;;;;;127.45;85.15;;;16.50;99.90;;;;;;4950800;28;20122;-66
2022/09/08 07:21:45;;;;;;;121.13;80.78;;;16.50;99.90;;;;;;4949968;29;20089;-66
2022/09/08 07:24:15;;;;;;;112.88;79.97;;;16.60;99.90;;;;;;4959604;28;21000;-66
2022/09/08 07:26:49;;;;;;;108.70;75.07;;;16.50;99.90;;;;;;4959589;28;20119;-67
2022/09/08 07:29:23;;;;;;;96.03;69.53;;;16.60;99.90;;;;;;4969696;28;20109;-67
2022/09/08 07:31:51;;;;;;;100.47;71.90;;;16.60;99.90;;;;;;4954386;28;20113;-67
2022/09/08 07:34:22;;;;;;;;;;;16.60;99.90;;;;;;4969726;28;20105;-67
2022/09/08 07:37:12;;;;;;;98.50;67.63;;;16.60;99.90;;;;;;4965387;28;20005;-67
2022/09/08 07:39:47;;;;;;;87.20;64.90;;;16.60;99.90;;;;;;4968332;28;20567;-67
2022/09/08 07:42:16;;;;;;;83.05;61.55;;;16.60;99.90;;;;;;4957670;28;20141;-67
2022/09/08 07:44:42;;;;;;;74.93;56.40;;;16.60;99.90;;;;;;4964841;28;20051;-66
2022/09/08 07:47:38;;;;;;;78.65;58.70;;;16.60;99.90;;;;;;4962958;28;20049;-67
2022/09/08 07:53:27;;;;;;;77.22;55.33;;;16.70;99.90;;;;;;4961944;28;20480;-66
2022/09/08 07:56:00;;;;;;;77.13;57.95;;;16.70;99.90;;;;;;4963374;28;20053;-66
2022/09/08 07:59:05;;;;;;;75.18;57.95;;;16.70;99.90;;;;;;4966461;28;20057;-66
2022/09/08 08:02:04;;;;;;;93.28;67.15;;;16.70;99.90;;;;;;4960027;28;20058;-66
2022/09/08 08:05:17;;;;;;;83.60;62.80;;;16.80;99.90;;;;;;4955496;28;20049;-66
2022/09/08 08:07:42;;;;;;;92.38;67.35;;;16.80;99.90;;;;;;4962949;28;20097;-66
2022/09/08 08:10:15;;;;;;;97.85;70.88;;;16.80;99.90;;;;;;4964664;28;20047;-67
2022/09/08 08:13:03;;;;;;;101.65;72.90;;;16.80;99.90;;;;;;4961640;28;20101;-66
2022/09/08 08:15:52;;;;;;;106.60;74.68;;;16.90;99.90;;;;;;4958653;28;20039;-67
2022/09/08 08:18:31;;;;;;;108.13;74.18;;;16.90;99.90;;;;;;4964205;28;20051;-68
2022/09/08 08:21:16;;;;;;;110.70;77.78;;;16.90;99.90;;;;;;4966588;28;20059;-67
2022/09/08 08:24:06;;;;;;;108.80;76.57;;;16.90;99.90;;;;;;4958568;28;20654;-67
2022/09/08 08:27:13;;;;;;;109.68;74.47;;;16.90;99.90;;;;;;4954704;28;20093;-67
2022/09/08 08:30:00;;;;;;;95.60;69.90;;;16.90;99.90;;;;;;4961295;28;20130;-66
2022/09/08 08:32:32;;;;;;;96.30;68.05;;;16.90;99.90;;;;;;4968949;28;20316;-67
2022/09/08 08:35:31;;;;;;;90.68;66.82;;;16.90;99.90;;;;;;4971143;28;20126;-67
2022/09/08 08:37:58;;;;;;;90.32;66.97;;;16.90;99.90;;;;;;4974919;28;20186;-66
2022/09/08 08:41:09;;;;;;;91.70;62.75;;;16.90;99.90;;;;;;4964268;28;20489;-66
2022/09/08 08:43:59;;;;;;;93.35;68.63;;;16.90;99.90;;;;;;4959140;28;20050;-66
2022/09/08 08:46:39;;;;;;;98.10;69.53;;;17.00;99.90;;;;;;4970952;28;20106;-66
2022/09/08 08:49:31;;;;;;;89.32;64.95;;;17.00;99.90;;;;;;4973818;28;20087;-65
2022/09/08 08:52:18;;;;;;;95.38;64.40;;;17.00;99.90;;;;;;4974886;28;20566;-66
2022/09/08 08:54:52;;;;;;;81.25;62.50;;;17.00;99.90;;;;;;4973886;28;20043;-66
2022/09/08 08:57:45;;;;;;;95.00;66.40;;;17.00;99.90;;;;;;4973885;28;20053;-66
2022/09/08 09:00:22;;;;;;;79.93;58.45;;;17.10;99.90;;;;;;4974789;28;20097;-65
2022/09/08 09:03:12;;;;;;;71.45;55.97;;;17.10;99.90;;;;;;4974399;28;20407;-66
2022/09/08 09:06:00;;;;;;;70.78;54.88;;;17.10;99.90;;;;;;4974190;28;20160;-66
2022/09/08 09:08:51;;;;;;;73.80;54.08;;;17.10;99.90;;;;;;4969702;28;20055;-67
2022/09/08 09:11:48;;;;;;;71.72;55.05;;;17.20;99.90;;;;;;4955160;29;20519;-67
2022/09/08 09:14:27;;;;;;;70.60;53.58;;;17.20;99.90;;;;;;4954541;28;20051;-66
2022/09/08 09:17:11;;;;;;;73.47;51.63;;;17.20;99.90;;;;;;4955590;28;20057;-67
2022/09/08 09:20:01;;;;;;;61.22;47.20;;;17.30;99.90;;;;;;4955705;28;20414;-66
2022/09/08 09:22:46;;;;;;;55.65;45.80;;;17.30;99.90;;;;;;4974116;28;20505;-66
2022/09/08 09:25:14;;;;;;;58.00;42.10;;;17.30;99.90;;;;;;4973234;28;20046;-66
2022/09/08 09:27:41;;;;;;;51.63;40.28;;;17.40;99.90;;;;;;4971994;28;20496;-65
2022/09/08 09:30:26;;;;;;;44.47;36.63;;;17.40;99.90;;;;;;4971484;28;20050;-66
2022/09/08 09:33:04;;;;;;;44.80;36.08;;;17.50;99.90;;;;;;4974984;28;20050;-66
2022/09/08 09:36:02;;;;;;;47.97;34.03;;;17.50;99.90;;;;;;4955942;28;20047;-67
2022/09/08 09:39:23;;;;;;;36.10;30.45;;;17.50;99.90;;;;;;4969575;28;20105;-66
2022/09/08 09:42:09;;;;;;;41.85;30.60;;;17.60;99.90;;;;;;4956801;28;20062;-66
2022/09/08 09:44:58;;;;;;;40.35;30.38;;;17.60;99.90;;;;;;4971156;28;20098;-66
2022/09/08 09:47:57;;;;;;;30.38;24.20;;;17.60;99.90;;;;;;4971757;28;20043;-66
2022/09/08 09:50:33;;;;;;;29.80;23.85;;;17.50;99.90;;;;;;4958436;28;20126;-65
2022/09/08 09:53:34;;;;;;;26.58;22.92;;;17.60;99.90;;;;;;4970169;28;20035;-64
2022/09/08 09:56:05;;;;;;;25.48;22.83;;;17.60;99.90;;;;;;4943768;28;20086;-64
2022/09/08 09:58:50;;;;;;;22.77;19.70;;;17.60;99.90;;;;;;4970384;28;20062;-64
2022/09/08 10:01:36;;;;;;;24.45;18.42;;;17.60;99.90;;;;;;4970982;28;20803;-64
2022/09/08 10:04:40;;;;;;;22.37;16.87;;;17.60;99.90;;;;;;4971778;28;20083;-64
2022/09/08 10:07:38;;;;;;;19.02;17.20;;;17.50;99.90;;;;;;4952135;29;20050;-64
2022/09/08 10:10:26;;;;;;;22.52;16.90;;;17.50;99.90;;;;;;4963799;28;20043;-65
2022/09/08 10:13:10;;;;;;;18.13;15.85;;;17.50;99.90;;;;;;4950584;29;20055;-65
2022/09/08 10:16:06;;;;;;;17.15;15.38;;;17.50;99.90;;;;;;4955866;28;20685;-64
2022/09/08 10:18:45;;;;;;;22.07;17.07;;;17.50;99.90;;;;;;4955445;28;20214;-65
2022/09/08 10:21:57;;;;;;;17.73;15.82;;;17.50;99.90;;;;;;4962995;28;20500;-65
2022/09/08 10:24:56;;;;;;;18.13;15.75;;;17.50;99.90;;;;;;4961751;28;20109;-65
2022/09/08 10:27:43;;;;;;;18.20;16.13;;;17.50;99.90;;;;;;4969277;28;20179;-66
2022/09/08 10:30:23;;;;;;;17.97;16.10;;;17.50;99.90;;;;;;4970833;28;20078;-67
2022/09/08 10:33:10;;;;;;;16.95;15.25;;;17.50;99.90;;;;;;4970131;28;20053;-66
2022/09/08 10:35:51;;;;;;;15.25;13.68;;;17.50;99.90;;;;;;4968943;28;20093;-66
2022/09/08 10:38:23;;;;;;;15.88;12.52;;;17.50;99.90;;;;;;4970476;28;20061;-66
2022/09/08 10:40:54;;;;;;;13.68;12.00;;;17.50;99.90;;;;;;4970303;28;20062;-67
2022/09/08 10:43:36;;;;;;;15.55;12.75;;;17.50;99.90;;;;;;4968983;28;20146;-67
2022/09/08 10:46:20;;;;;;;13.63;10.10;;;17.40;99.90;;;;;;4971148;28;20125;-67
2022/09/08 10:48:54;;;;;;;10.40;9.43;;;17.40;99.90;;;;;;4971480;28;20463;-67
2022/09/08 10:51:19;;;;;;;13.20;8.75;;;17.40;99.90;;;;;;4968942;28;20496;-67
2022/09/08 10:54:00;;;;;;;10.25;6.10;;;17.40;99.90;;;;;;4970705;28;20057;-67
2022/09/08 10:56:29;;;;;;;10.02;7.55;;;17.40;99.90;;;;;;4969119;28;20065;-67
2022/09/08 10:59:05;;;;;;;9.77;5.15;;;17.40;99.90;;;;;;4960049;28;20050;-67
2022/09/08 11:01:49;;;;;;;9.00;6.18;;;17.50;99.90;;;;;;4950413;29;20087;-67
2022/09/08 11:04:33;;;;;;;7.22;6.07;;;17.40;99.90;;;;;;4951785;29;20138;-67
2022/09/08 11:07:17;;;;;;;7.35;5.82;;;17.40;99.90;;;;;;4952931;28;20157;-67
2022/09/08 11:10:11;;;;;;;7.88;4.80;;;17.40;99.90;;;;;;4954592;28;20050;-66
2022/09/08 11:12:58;;;;;;;7.30;4.45;;;17.40;99.90;;;;;;4970023;28;20126;-66
2022/09/08 11:15:51;;;;;;;4.97;4.47;;;17.30;99.90;;;;;;4963496;28;20047;-67
2022/09/08 11:18:44;;;;;;;10.52;5.68;;;17.30;99.90;;;;;;4966507;28;20294;-66
2022/09/08 11:21:47;;;;;;;8.75;6.25;;;17.20;99.90;;;;;;4969891;28;20587;-67
2022/09/08 11:24:25;;;;;;;7.50;4.93;;;17.20;99.90;;;;;;4969587;28;20134;-67
2022/09/08 11:26:51;;;;;;;7.35;5.03;;;17.30;99.90;;;;;;4957090;28;20654;-67
2022/09/08 11:29:17;;;;;;;5.40;4.78;;;17.30;99.90;;;;;;4957427;28;20122;-67
2022/09/08 11:31:54;;;;;;;6.18;4.53;;;17.30;99.90;;;;;;4969454;28;20106;-68
2022/09/08 11:34:38;;;;;;;7.95;5.30;;;17.30;99.90;;;;;;4964756;28;20051;-67
2022/09/08 11:37:47;;;;;;;8.27;5.07;;;17.30;99.90;;;;;;4967030;28;20053;-67
2022/09/08 11:40:37;;;;;;;7.78;5.05;;;17.30;99.90;;;;;;4950234;28;20048;-67
2022/09/08 11:43:36;;;;;;;7.20;4.82;;;17.30;99.90;;;;;;4953408;28;20135;-67
2022/09/08 11:46:26;;;;;;;6.43;4.57;;;17.30;99.90;;;;;;4950408;28;20063;-67
2022/09/08 11:48:57;;;;;;;9.43;5.20;;;17.30;99.90;;;;;;4961025;28;20388;-67
2022/09/08 11:51:33;;;;;;;5.40;3.95;;;17.30;99.90;;;;;;4968378;28;20046;-67
2022/09/08 11:54:29;;;;;;;4.70;3.97;;;17.30;99.90;;;;;;4962457;28;20463;-67
2022/09/08 11:57:06;;;;;;;7.47;5.80;;;17.40;99.90;;;;;;4966948;28;20079;-67
2022/09/08 12:00:03;;;;;;;5.18;4.45;;;17.30;99.90;;;;;;4968039;28;20126;-67
2022/09/08 12:02:52;;;;;;;6.25;5.07;;;17.30;99.90;;;;;;4960280;28;20035;-67
2022/09/08 12:05:27;;;;;;;4.47;4.07;;;17.30;99.90;;;;;;4963919;28;20057;-66
2022/09/08 12:08:19;;;;;;;6.50;5.88;;;17.30;99.90;;;;;;4967442;28;20062;-66
2022/09/08 12:10:54;;;;;;;10.40;5.63;;;17.30;99.90;;;;;;4960374;28;20725;-66
2022/09/08 12:13:51;;;;;;;6.13;5.03;;;17.30;99.90;;;;;;4960497;28;20122;-66
2022/09/08 12:16:46;;;;;;;4.65;4.25;;;17.30;99.90;;;;;;4956953;28;20056;-66
2022/09/08 12:19:23;;;;;;;6.95;5.03;;;17.30;99.90;;;;;;4958865;28;20039;-65
2022/09/08 12:21:57;;;;;;;9.70;5.13;;;17.30;99.90;;;;;;4962746;28;20051;-65
2022/09/08 12:24:57;;;;;;;5.15;4.32;;;17.30;99.90;;;;;;4968723;28;20436;-65
2022/09/08 12:27:39;;;;;;;9.05;4.50;;;17.30;99.90;;;;;;4965184;28;20428;-65
2022/09/08 12:30:21;;;;;;;4.57;3.90;;;17.30;99.90;;;;;;4967792;28;20480;-65
2022/09/08 12:33:04;;;;;;;4.25;3.85;;;17.40;99.90;;;;;;4964443;28;20117;-65
2022/09/08 12:35:32;;;;;;;5.90;4.28;;;17.40;99.90;;;;;;4967372;28;20062;-65
2022/09/08 12:38:01;;;;;;;6.53;4.68;;;17.40;99.90;;;;;;4962097;28;20049;-65
2022/09/08 12:40:54;;;;;;;9.85;5.35;;;17.50;99.90;;;;;;4964434;28;20043;-65
2022/09/08 12:43:23;;;;;;;5.80;4.20;;;17.50;99.90;;;;;;4943041;28;20046;-65
2022/09/08 12:45:59;;;;;;;6.05;5.45;;;17.50;99.90;;;;;;4969495;28;20039;-64
2022/09/08 12:48:36;;;;;;;6.22;5.00;;;17.50;99.90;;;;;;4968133;28;20057;-64
2022/09/08 12:51:20;;;;;;;8.88;7.32;;;17.50;99.90;;;;;;4969709;28;20046;-64
2022/09/08 12:54:33;;;;;;;7.25;6.25;;;17.50;99.90;;;;;;4967276;28;20088;-64
2022/09/08 12:57:23;;;;;;;6.38;5.72;;;17.40;99.90;;;;;;4952789;28;20109;-64
2022/09/08 13:00:12;;;;;;;7.25;5.50;;;17.50;99.90;;;;;;4969654;28;20039;-64
2022/09/08 13:03:15;;;;;;;5.60;4.50;;;17.50;99.90;;;;;;4966192;28;20035;-64
2022/09/08 13:05:49;;;;;;;8.57;5.30;;;17.60;99.90;;;;;;4962725;28;20047;-63
2022/09/08 13:08:37;;;;;;;5.75;5.25;;;17.60;99.90;;;;;;4956954;28;20500;-64
2022/09/08 13:11:31;;;;;;;7.70;5.90;;;17.70;99.90;;;;;;4959787;28;20081;-63
2022/09/08 13:14:04;;;;;;;7.45;6.63;;;17.80;99.90;;;;;;4966673;28;20058;-64
2022/09/08 13:16:45;;;;;;;8.07;7.03;;;17.80;99.90;;;;;;4964338;28;20050;-63
2022/09/08 13:19:39;;;;;;;8.88;8.00;;;17.90;99.90;;;;;;4971628;28;20047;-65